Time;durP1;ratioP1;P1;durP2;ratioP2;P2;SDS_P1;SDS_P2;PMS_P1;PMS_P2;Temp;Humidity;BMP_temperature;BMP_pressure;BME280_temperature;BME280_humidity;BME280_pressure;Samples;Min_cycle;Max_cycle;Signal;HPM_P1;HPM_P2
2021/08/11 00:00:00;;;;;;;11.13;5.75;;;614.80;1536.00;;;;;;4843509;29;20496;-72
2021/08/11 00:02:32;;;;;;;14.75;5.70;;;614.80;1536.00;;;;;;4843586;29;20473;-71
2021/08/11 00:05:03;;;;;;;14.23;5.40;;;614.80;1536.00;;;;;;4843446;29;20101;-71
2021/08/11 00:07:35;;;;;;;16.00;5.88;;;614.70;1536.00;;;;;;4843517;29;20037;-71
2021/08/11 00:10:08;;;;;;;15.70;5.30;;;614.70;1561.60;;;;;;4843354;29;20025;-71
2021/08/11 00:12:40;;;;;;;10.70;5.00;;;614.60;1561.60;;;;;;4826833;29;20045;-71
2021/08/11 00:15:12;;;;;;;10.85;4.70;;;614.60;1561.60;;;;;;4843184;29;20117;-72
2021/08/11 00:17:41;;;;;;;10.63;4.65;;;614.60;1561.60;;;;;;4843504;29;20026;-70
2021/08/11 00:20:12;;;;;;;12.25;4.57;;;614.50;1561.60;;;;;;4843256;29;20049;-71
2021/08/11 00:22:42;;;;;;;9.77;5.20;;;614.50;1587.20;;;;;;4843130;29;20553;-71
2021/08/11 00:25:14;;;;;;;7.35;4.57;;;614.50;1587.20;;;;;;4843207;29;20038;-72
2021/08/11 00:27:48;;;;;;;10.18;5.18;;;614.40;1587.20;;;;;;4843399;29;20032;-71
2021/08/11 00:30:19;;;;;;;13.30;5.50;;;614.40;1587.20;;;;;;4843282;29;20026;-72
2021/08/11 00:32:51;;;;;;;11.95;5.15;;;614.40;1587.20;;;;;;4843473;29;20481;-71
2021/08/11 00:35:22;;;;;;;8.95;4.43;;;614.40;1587.20;;;;;;4842979;29;20495;-71
2021/08/11 00:37:51;;;;;;;7.32;4.80;;;614.40;1587.20;;;;;;4843132;29;20087;-70
2021/08/11 00:40:24;;;;;;;11.00;5.25;;;614.40;1587.20;;;;;;4843150;29;20362;-71
2021/08/11 00:42:56;;;;;;;10.27;5.40;;;589.70;1587.20;;;;;;4842960;29;20109;-71
2021/08/11 00:45:28;;;;;;;11.77;5.22;;;589.70;1612.80;;;;;;4842907;29;20166;-72
2021/08/11 00:47:57;;;;;;;12.82;4.82;;;589.70;1612.80;;;;;;4842898;29;20042;-71
2021/08/11 00:50:29;;;;;;;12.15;5.45;;;589.60;1612.80;;;;;;4843460;29;20063;-72
2021/08/11 00:52:59;;;;;;;8.65;4.82;;;589.70;1587.20;;;;;;4842878;29;20058;-70
2021/08/11 00:55:25;;;;;;;8.10;4.25;;;589.60;1587.20;;;;;;4825892;29;20073;-70
2021/08/11 00:57:52;;;;;;;11.90;4.45;;;589.60;1587.20;;;;;;4842739;29;20037;-70
2021/08/11 01:00:20;;;;;;;10.07;6.00;;;589.70;1587.20;;;;;;4842630;29;20492;-68
2021/08/11 01:02:52;;;;;;;7.68;4.85;;;589.60;1587.20;;;;;;4842916;29;20026;-71
2021/08/11 01:05:22;;;;;;;12.40;4.63;;;589.60;1612.80;;;;;;4842849;29;20477;-70
2021/08/11 01:07:54;;;;;;;8.43;4.90;;;589.60;1587.20;;;;;;4842841;29;20074;-71
2021/08/11 01:10:28;;;;;;;11.05;5.40;;;589.50;1612.80;;;;;;4842791;29;20064;-71
2021/08/11 01:13:00;;;;;;;9.40;4.72;;;589.50;1587.20;;;;;;4842634;29;20046;-71
2021/08/11 01:15:32;;;;;;;9.30;5.10;;;589.50;1587.20;;;;;;4842898;29;20046;-72
2021/08/11 01:18:03;;;;;;;9.10;4.68;;;589.60;1561.60;;;;;;4842699;29;20049;-71
2021/08/11 01:20:43;;;;;;;7.80;4.63;;;589.50;1561.60;;;;;;4842631;29;20094;-71
2021/08/11 01:23:20;;;;;;;7.60;5.07;;;589.50;1561.60;;;;;;4842737;29;20030;-71
2021/08/11 01:26:03;;;;;;;8.50;4.95;;;589.50;1587.20;;;;;;4842625;29;20037;-71
2021/08/11 01:28:57;;;;;;;10.40;4.43;;;589.40;1587.20;;;;;;4842460;29;20026;-71
2021/08/11 01:31:49;;;;;;;14.52;5.28;;;589.40;1612.80;;;;;;4842524;29;20059;-71
2021/08/11 01:34:43;;;;;;;9.43;4.80;;;589.40;1612.80;;;;;;4842705;29;20102;-71
2021/08/11 01:37:27;;;;;;;11.50;4.93;;;589.40;1612.80;;;;;;4842533;29;20026;-71
2021/08/11 01:40:02;;;;;;;12.35;6.03;;;589.40;1612.80;;;;;;4826066;29;20308;-72
2021/08/11 01:42:38;;;;;;;12.07;4.90;;;589.30;1638.40;;;;;;4845889;29;20050;-72
2021/08/11 01:45:33;;;;;;;12.43;5.22;;;589.30;1638.40;;;;;;4846037;29;20026;-71
2021/08/11 01:48:15;;;;;;;9.65;5.10;;;589.30;1638.40;;;;;;4864382;29;20057;-71
2021/08/11 01:50:51;;;;;;;11.57;5.25;;;589.20;1638.40;;;;;;4864137;29;20037;-71
2021/08/11 01:53:24;;;;;;;10.20;5.32;;;589.20;1638.40;;;;;;4864408;29;20567;-71
2021/08/11 01:55:58;;;;;;;9.13;5.30;;;589.10;1638.40;;;;;;4864274;29;20034;-72
2021/08/11 01:58:31;;;;;;;8.37;5.10;;;589.10;1638.40;;;;;;4864380;29;20026;-71
2021/08/11 02:01:07;;;;;;;10.48;5.15;;;589.10;1638.40;;;;;;4864108;29;20476;-72
2021/08/11 02:03:41;;;;;;;6.57;4.18;;;589.10;1612.80;;;;;;4864250;29;20045;-71
2021/08/11 02:06:16;;;;;;;11.02;4.95;;;589.10;1612.80;;;;;;4863881;29;20030;-71
2021/08/11 02:08:48;;;;;;;9.93;4.90;;;589.10;1587.20;;;;;;4864125;29;20037;-72
2021/08/11 02:11:18;;;;;;;7.68;4.72;;;589.10;1587.20;;;;;;4864010;29;20032;-71
2021/08/11 02:13:50;;;;;;;6.95;4.45;;;589.20;1587.20;;;;;;4863740;29;20037;-71
2021/08/11 02:16:22;;;;;;;8.15;4.75;;;589.20;1587.20;;;;;;4864009;29;20026;-71
2021/08/11 02:18:51;;;;;;;8.30;4.72;;;589.20;1561.60;;;;;;4863827;29;20029;-71
2021/08/11 02:21:23;;;;;;;12.07;4.45;;;589.20;1561.60;;;;;;4864025;29;20025;-72
2021/08/11 02:23:55;;;;;;;9.75;4.25;;;589.20;1561.60;;;;;;4863876;29;20548;-72
2021/08/11 02:26:48;;;;;;;8.52;4.70;;;589.20;1561.60;;;;;;4863804;29;20085;-71
2021/08/11 02:29:41;;;;;;;12.35;5.15;;;589.20;1561.60;;;;;;4863478;29;20432;-71
2021/08/11 02:32:31;;;;;;;8.43;5.45;;;589.10;1561.60;;;;;;4862394;29;20040;-70
2021/08/11 02:35:18;;;;;;;10.63;5.20;;;589.10;1561.60;;;;;;4863400;29;20056;-72
2021/08/11 02:38:23;;;;;;;12.85;5.20;;;589.10;1561.60;;;;;;4863667;29;20025;-72
2021/08/11 02:41:13;;;;;;;8.90;4.60;;;589.00;1561.60;;;;;;4863553;29;20038;-71
2021/08/11 02:44:09;;;;;;;14.50;4.93;;;589.00;1587.20;;;;;;4863285;29;20418;-71
2021/08/11 02:46:43;;;;;;;9.25;5.68;;;588.90;1587.20;;;;;;4861862;29;20445;-71
2021/08/11 02:49:14;;;;;;;11.57;4.85;;;588.80;1587.20;;;;;;4863336;29;20036;-72
2021/08/11 02:51:48;;;;;;;7.85;4.60;;;588.80;1587.20;;;;;;4863090;29;20037;-71
2021/08/11 02:54:22;;;;;;;10.68;4.80;;;588.80;1612.80;;;;;;4863242;29;20078;-71
2021/08/11 02:56:54;;;;;;;10.32;5.28;;;588.80;1612.80;;;;;;4861799;29;20068;-71
2021/08/11 02:59:28;;;;;;;11.27;5.68;;;588.80;1612.80;;;;;;4863079;29;20078;-71
2021/08/11 03:02:00;;;;;;;9.20;6.20;;;564.10;1612.80;;;;;;4862666;29;20030;-71
2021/08/11 03:04:32;;;;;;;11.30;5.70;;;564.10;1612.80;;;;;;4863311;29;20030;-71
2021/08/11 03:07:04;;;;;;;11.85;7.38;;;564.10;1638.40;;;;;;4862366;29;20025;-71
2021/08/11 03:09:35;;;;;;;18.00;8.48;;;564.10;1638.40;;;;;;4862940;29;20034;-72
2021/08/11 03:12:10;;;;;;;17.23;8.70;;;564.00;1638.40;;;;;;4863007;29;20033;-71
2021/08/11 03:14:44;;;;;;;12.10;8.88;;;564.00;1664.00;;;;;;4862814;29;20038;-71
2021/08/11 03:17:12;;;;;;;;;;;564.00;1638.40;;;;;;4862873;29;20032;-71
2021/08/11 03:19:45;;;;;;;16.88;8.20;;;564.00;1664.00;;;;;;4862652;29;19916;-71
2021/08/11 03:22:19;;;;;;;16.23;7.80;;;563.90;1664.00;;;;;;4862690;29;20425;-72
2021/08/11 03:24:53;;;;;;;12.90;7.32;;;563.90;1664.00;;;;;;4862737;29;20029;-71
2021/08/11 03:27:20;;;;;;;12.35;7.00;;;563.90;1664.00;;;;;;4862641;29;20434;-71
2021/08/11 03:29:52;;;;;;;14.30;6.93;;;563.90;1664.00;;;;;;4862467;29;20062;-71
2021/08/11 03:32:26;;;;;;;12.57;6.85;;;563.80;1664.00;;;;;;4862425;29;20485;-71
2021/08/11 03:34:54;;;;;;;;;;;564.00;1638.40;;;;;;4862713;29;20038;-71
2021/08/11 03:37:25;;;;;;;10.98;6.00;;;564.00;1638.40;;;;;;4862281;29;19908;-71
2021/08/11 03:39:58;;;;;;;12.95;6.47;;;564.00;1638.40;;;;;;4862271;29;20045;-71
2021/08/11 03:42:29;;;;;;;8.93;5.63;;;564.00;1638.40;;;;;;4862530;29;20033;-70
2021/08/11 03:45:00;;;;;;;13.23;6.18;;;563.90;1638.40;;;;;;4862270;29;20483;-71
2021/08/11 03:47:32;;;;;;;17.83;6.30;;;563.90;1638.40;;;;;;4862097;29;20053;-71
2021/08/11 03:50:04;;;;;;;12.95;5.80;;;563.90;1638.40;;;;;;4861953;29;20029;-71
2021/08/11 03:52:35;;;;;;;16.45;6.47;;;564.00;1638.40;;;;;;4862106;29;20030;-71
2021/08/11 03:55:10;;;;;;;15.95;6.57;;;564.00;1638.40;;;;;;4862252;29;20025;-71
2021/08/11 03:57:41;;;;;;;18.38;5.97;;;564.00;1638.40;;;;;;4862356;29;20056;-71
2021/08/11 04:00:14;;;;;;;15.57;6.40;;;564.00;1638.40;;;;;;4862104;29;20049;-71
2021/08/11 04:02:45;;;;;;;11.98;6.18;;;564.00;1638.40;;;;;;4861553;29;20065;-71
2021/08/11 04:05:17;;;;;;;18.65;7.38;;;564.00;1664.00;;;;;;4861801;29;20036;-72
2021/08/11 04:07:45;;;;;;;12.82;7.10;;;563.90;1664.00;;;;;;4862043;29;20033;-72
2021/08/11 04:10:16;;;;;;;21.55;9.85;;;563.80;1689.60;;;;;;4861815;29;20361;-71
2021/08/11 04:12:48;;;;;;;20.88;11.48;;;563.90;1664.00;;;;;;4861732;29;20384;-71
2021/08/11 04:15:19;;;;;;;25.80;12.23;;;563.90;1664.00;;;;;;4861730;29;20033;-70
2021/08/11 04:17:51;;;;;;;19.83;10.80;;;564.00;1664.00;;;;;;4861978;29;20476;-70
2021/08/11 04:20:22;;;;;;;24.05;9.75;;;564.00;1664.00;;;;;;4861600;29;20530;-70
2021/08/11 04:22:54;;;;;;;17.92;9.60;;;564.00;1689.60;;;;;;4861935;29;20418;-70
2021/08/11 04:25:27;;;;;;;17.33;8.93;;;564.00;1689.60;;;;;;4861960;29;20033;-70
2021/08/11 04:27:59;;;;;;;17.13;8.52;;;564.00;1689.60;;;;;;4861789;29;20372;-70
2021/08/11 04:30:31;;;;;;;16.80;8.27;;;564.10;1689.60;;;;;;4861805;29;20068;-70
2021/08/11 04:33:02;;;;;;;19.95;8.25;;;564.10;1689.60;;;;;;4861482;29;20031;-70
2021/08/11 04:35:37;;;;;;;17.25;8.10;;;564.10;1689.60;;;;;;4861529;29;20030;-70
2021/08/11 04:38:09;;;;;;;15.13;7.22;;;588.80;1689.60;;;;;;4861561;29;20029;-70
2021/08/11 04:40:41;;;;;;;17.23;7.53;;;588.80;1664.00;;;;;;4861483;29;20046;-70
2021/08/11 04:43:13;;;;;;;19.98;7.80;;;588.80;1664.00;;;;;;4861339;29;20109;-70
2021/08/11 04:45:44;;;;;;;18.20;7.50;;;588.80;1638.40;;;;;;4861189;29;20075;-70
2021/08/11 04:48:16;;;;;;;19.05;7.47;;;588.90;1664.00;;;;;;4861288;29;20114;-70
2021/08/11 04:50:48;;;;;;;20.50;8.20;;;588.90;1664.00;;;;;;4861224;29;20086;-70
2021/08/11 04:53:19;;;;;;;18.08;7.10;;;589.00;1664.00;;;;;;4861366;29;20512;-70
2021/08/11 04:55:50;;;;;;;17.00;6.82;;;589.00;1664.00;;;;;;4861414;29;20202;-70
2021/08/11 04:58:22;;;;;;;11.15;6.72;;;589.10;1664.00;;;;;;4861421;29;20093;-70
2021/08/11 05:00:56;;;;;;;25.10;7.75;;;589.10;1664.00;;;;;;4861229;29;20098;-70
2021/08/11 05:03:24;;;;;;;;;;;589.20;1664.00;;;;;;4861521;29;20074;-70
2021/08/11 05:05:56;;;;;;;15.52;7.47;;;589.20;1638.40;;;;;;4861307;29;19954;-70
2021/08/11 05:08:31;;;;;;;12.93;6.18;;;589.30;1638.40;;;;;;4861329;29;20061;-70
2021/08/11 05:10:56;;;;;;;14.55;7.68;;;589.30;1638.40;;;;;;4861247;29;20100;-70
2021/08/11 05:13:28;;;;;;;11.05;6.70;;;589.40;1638.40;;;;;;4861259;29;20021;-70
2021/08/11 05:16:00;;;;;;;15.90;6.85;;;589.50;1638.40;;;;;;4863647;29;20034;-70
2021/08/11 05:18:34;;;;;;;17.58;8.10;;;589.50;1612.80;;;;;;4864839;29;20057;-71
2021/08/11 05:21:05;;;;;;;14.82;7.38;;;589.60;1638.40;;;;;;4864761;29;20065;-70
2021/08/11 05:23:37;;;;;;;18.77;8.32;;;589.60;1638.40;;;;;;4863453;29;20022;-71
2021/08/11 05:26:08;;;;;;;15.90;7.45;;;589.70;1612.80;;;;;;4864732;29;20033;-70
2021/08/11 05:28:40;;;;;;;17.30;7.13;;;589.70;1612.80;;;;;;4864650;29;20026;-70
2021/08/11 05:31:11;;;;;;;15.43;7.15;;;614.40;1612.80;;;;;;4864531;29;20033;-70
2021/08/11 05:33:45;;;;;;;12.77;6.95;;;614.40;1587.20;;;;;;4864444;29;20049;-71
2021/08/11 05:36:14;;;;;;;;;;;614.50;1587.20;;;;;;4864918;29;20037;-70
2021/08/11 05:38:45;;;;;;;11.60;6.28;;;614.50;1587.20;;;;;;4864459;29;19915;-70
2021/08/11 05:41:17;;;;;;;13.93;6.75;;;614.50;1587.20;;;;;;4864531;29;20033;-70
2021/08/11 05:43:48;;;;;;;12.07;6.97;;;614.60;1561.60;;;;;;4864475;29;20038;-70
2021/08/11 05:46:20;;;;;;;13.05;7.25;;;614.70;1561.60;;;;;;4862858;29;20135;-70
2021/08/11 05:48:52;;;;;;;13.63;6.50;;;614.70;1536.00;;;;;;4864400;29;20120;-70
2021/08/11 05:51:23;;;;;;;10.73;6.20;;;614.80;1536.00;;;;;;4864565;29;20060;-70
2021/08/11 05:53:54;;;;;;;13.48;7.03;;;614.80;1536.00;;;;;;4863267;29;20034;-70
2021/08/11 05:56:25;;;;;;;10.60;6.70;;;614.90;1536.00;;;;;;4864118;29;20105;-71
2021/08/11 05:58:57;;;;;;;12.18;6.43;;;614.90;1536.00;;;;;;4864134;29;20078;-71
2021/08/11 06:01:31;;;;;;;10.05;6.22;;;615.00;1510.40;;;;;;4864265;29;20029;-71
2021/08/11 06:04:08;;;;;;;11.18;6.63;;;615.00;1510.40;;;;;;4864665;29;20032;-70
2021/08/11 06:06:37;;;;;;;9.85;5.93;;;615.10;1510.40;;;;;;4864012;29;20037;-70
2021/08/11 06:09:11;;;;;;;13.68;5.13;;;615.10;1510.40;;;;;;4864034;29;20036;-70
2021/08/11 06:11:39;;;;;;;;;;;615.20;1510.40;;;;;;4864287;29;20096;-71
2021/08/11 06:14:13;;;;;;;10.70;5.53;;;615.20;1510.40;;;;;;4863923;29;19919;-70
2021/08/11 06:16:45;;;;;;;10.43;6.20;;;615.30;1536.00;;;;;;4863866;29;20026;-71
2021/08/11 06:19:16;;;;;;;11.05;6.10;;;640.00;1510.40;;;;;;4863810;29;20048;-71
2021/08/11 06:21:42;;;;;;;10.30;6.43;;;640.10;1484.80;;;;;;4863980;29;20022;-70
2021/08/11 06:24:08;;;;;;;16.92;6.25;;;640.20;1484.80;;;;;;4863847;29;20036;-69
2021/08/11 06:26:35;;;;;;;9.95;5.55;;;640.30;1510.40;;;;;;4862964;29;20029;-69
2021/08/11 06:29:01;;;;;;;17.17;6.38;;;640.50;1510.40;;;;;;4863430;29;20030;-69
2021/08/11 06:31:27;;;;;;;14.90;6.70;;;640.60;1510.40;;;;;;4863480;29;20437;-69
2021/08/11 06:33:54;;;;;;;26.58;7.38;;;640.70;1510.40;;;;;;4863478;29;20029;-69
2021/08/11 06:36:21;;;;;;;20.35;6.25;;;640.80;1484.80;;;;;;4863493;29;20040;-69
2021/08/11 06:38:48;;;;;;;14.70;6.22;;;665.60;1484.80;;;;;;4863369;29;20073;-69
2021/08/11 06:41:17;;;;;;;19.73;6.45;;;665.80;1484.80;;;;;;4863309;29;20030;-70
2021/08/11 06:43:44;;;;;;;22.58;6.65;;;666.20;1459.20;;;;;;4863393;29;20387;-70
2021/08/11 06:46:12;;;;;;;13.18;6.20;;;666.40;1433.60;;;;;;4863227;29;20045;-70
2021/08/11 06:48:44;;;;;;;15.88;7.03;;;691.30;1433.60;;;;;;4863319;29;20040;-71
2021/08/11 06:51:15;;;;;;;21.48;7.65;;;691.70;1382.40;;;;;;4863223;29;20030;-72
2021/08/11 06:53:47;;;;;;;22.27;7.90;;;692.00;1356.80;;;;;;4862880;29;20380;-71
2021/08/11 06:56:19;;;;;;;17.50;8.30;;;716.90;1356.80;;;;;;4863285;29;20025;-70
2021/08/11 06:58:50;;;;;;;25.17;7.93;;;717.20;1331.20;;;;;;4863178;29;20026;-70
2021/08/11 07:01:22;;;;;;;19.17;7.43;;;717.50;1331.20;;;;;;4863149;29;20049;-70
2021/08/11 07:03:53;;;;;;;16.08;7.38;;;742.40;1331.20;;;;;;4862901;29;20524;-70
2021/08/11 07:06:24;;;;;;;12.52;7.32;;;742.60;1305.60;;;;;;4862872;29;20037;-70
2021/08/11 07:08:55;;;;;;;17.15;6.53;;;742.90;1280.00;;;;;;4863326;29;20354;-70
2021/08/11 07:11:27;;;;;;;17.20;7.13;;;743.10;1254.40;;;;;;4863043;29;20025;-70
2021/08/11 07:13:59;;;;;;;15.43;6.68;;;743.30;1228.80;;;;;;4862898;29;20053;-70
2021/08/11 07:16:30;;;;;;;19.80;6.38;;;768.20;1203.20;;;;;;4863024;29;20038;-70
2021/08/11 07:19:02;;;;;;;16.65;6.55;;;768.50;1203.20;;;;;;4862655;29;20112;-70
2021/08/11 07:21:36;;;;;;;14.05;6.10;;;768.70;1177.60;;;;;;4861589;29;20076;-70
2021/08/11 07:24:07;;;;;;;15.73;6.38;;;793.60;1177.60;;;;;;4862735;29;20406;-70
2021/08/11 07:26:39;;;;;;;13.63;6.85;;;793.80;1177.60;;;;;;4862518;29;20112;-70
2021/08/11 07:29:10;;;;;;;13.13;6.00;;;794.10;1177.60;;;;;;4862540;29;20490;-70
2021/08/11 07:31:42;;;;;;;10.38;5.15;;;794.30;1177.60;;;;;;4862491;29;20468;-70
2021/08/11 07:34:13;;;;;;;6.78;4.47;;;794.50;1177.60;;;;;;4862477;29;20078;-70
2021/08/11 07:36:45;;;;;;;10.20;4.75;;;819.30;1177.60;;;;;;4862346;29;20033;-70
2021/08/11 07:39:16;;;;;;;9.10;4.45;;;819.50;1152.00;;;;;;4862039;29;20036;-70
2021/08/11 07:41:48;;;;;;;7.43;3.97;;;819.70;1152.00;;;;;;4862586;29;20029;-71
2021/08/11 07:44:19;;;;;;;8.60;4.22;;;819.90;1126.40;;;;;;4861897;29;20045;-70
2021/08/11 07:46:51;;;;;;;11.63;4.13;;;820.10;1100.80;;;;;;4859807;29;20049;-70
2021/08/11 07:49:23;;;;;;;8.73;3.88;;;844.90;1126.40;;;;;;4862565;29;20029;-70
2021/08/11 07:51:54;;;;;;;11.10;3.47;;;845.10;1100.80;;;;;;4862318;29;20033;-70
2021/08/11 07:54:25;;;;;;;10.25;4.25;;;845.30;1075.20;;;;;;4862100;29;20028;-71
2021/08/11 07:56:57;;;;;;;7.63;3.58;;;845.50;1049.60;;;;;;4861982;29;20057;-70
2021/08/11 07:59:28;;;;;;;13.32;3.97;;;845.60;1049.60;;;;;;4862197;29;20392;-71
2021/08/11 08:02:01;;;;;;;6.47;3.00;;;870.40;1024.00;;;;;;4862123;29;20108;-71
2021/08/11 08:04:32;;;;;;;8.27;3.50;;;870.60;998.40;;;;;;4862268;29;20472;-70
2021/08/11 08:07:03;;;;;;;4.95;2.80;;;870.80;972.80;;;;;;4861868;29;20049;-70
2021/08/11 08:09:35;;;;;;;6.38;3.83;;;870.90;921.60;;;;;;4861897;29;20032;-70
2021/08/11 08:12:07;;;;;;;7.82;3.38;;;871.10;921.60;;;;;;4860385;29;20116;-71
2021/08/11 08:14:39;;;;;;;4.88;2.88;;;871.20;870.40;;;;;;4861900;29;20040;-71
2021/08/11 08:17:10;;;;;;;4.30;3.47;;;871.30;870.40;;;;;;4861692;29;20426;-71
2021/08/11 08:19:42;;;;;;;4.55;2.60;;;896.00;844.80;;;;;;4862440;29;20094;-70
2021/08/11 08:22:16;;;;;;;3.83;2.75;;;896.20;844.80;;;;;;4861871;29;20033;-71
2021/08/11 08:24:54;;;;;;;5.68;3.00;;;896.30;819.20;;;;;;4861870;29;20022;-71
2021/08/11 08:27:27;;;;;;;7.38;2.58;;;896.40;819.20;;;;;;4861668;29;20397;-71
2021/08/11 08:29:57;;;;;;;;;;;896.60;793.60;;;;;;4861977;29;20041;-71
2021/08/11 08:32:31;;;;;;;6.10;2.42;;;896.80;793.60;;;;;;4862014;29;19914;-70
2021/08/11 08:35:03;;;;;;;2.35;2.00;;;896.90;768.00;;;;;;4861622;29;20361;-71
2021/08/11 08:37:34;;;;;;;6.85;2.58;;;921.60;793.60;;;;;;4861699;29;20117;-71
2021/08/11 08:40:11;;;;;;;3.67;2.45;;;921.70;793.60;;;;;;4861257;29;20034;-71
2021/08/11 08:42:44;;;;;;;3.42;2.08;;;921.90;793.60;;;;;;4861537;29;20536;-70
2021/08/11 08:45:14;;;;;;;2.90;2.10;;;922.00;768.00;;;;;;4861539;29;20121;-71
2021/08/11 08:47:46;;;;;;;3.58;2.10;;;922.10;768.00;;;;;;4861448;29;20045;-71
2021/08/11 08:50:19;;;;;;;3.65;2.47;;;922.20;768.00;;;;;;4861260;29;20029;-71
2021/08/11 08:52:52;;;;;;;6.13;2.15;;;922.30;768.00;;;;;;4861458;29;20066;-71
2021/08/11 08:55:25;;;;;;;3.60;1.98;;;922.50;742.40;;;;;;4861311;29;20085;-71
2021/08/11 08:57:56;;;;;;;4.75;2.58;;;947.20;768.00;;;;;;4861464;29;20030;-71
2021/08/11 09:00:29;;;;;;;5.68;2.58;;;947.30;742.40;;;;;;4861172;29;20116;-71
2021/08/11 09:03:01;;;;;;;4.70;2.45;;;947.30;742.40;;;;;;4861337;29;20081;-71
2021/08/11 09:05:31;;;;;;;8.23;2.22;;;947.50;768.00;;;;;;4861369;29;20040;-71
2021/08/11 09:08:02;;;;;;;4.82;2.63;;;947.50;768.00;;;;;;4861186;29;20422;-71
2021/08/11 09:10:36;;;;;;;4.30;2.35;;;947.70;742.40;;;;;;4861441;29;20034;-71
2021/08/11 09:13:22;;;;;;;4.95;2.42;;;947.80;742.40;;;;;;4859513;29;20034;-70
2021/08/11 09:16:04;;;;;;;9.55;2.50;;;948.00;742.40;;;;;;4861188;29;20030;-71
2021/08/11 09:18:35;;;;;;;6.97;2.53;;;948.00;716.80;;;;;;4861192;29;20029;-70
2021/08/11 09:21:06;;;;;;;3.65;2.58;;;972.80;691.20;;;;;;4860966;29;20489;-70
2021/08/11 09:23:42;;;;;;;4.60;2.33;;;973.00;691.20;;;;;;4861031;29;20033;-70
2021/08/11 09:26:10;;;;;;;5.07;2.38;;;973.00;691.20;;;;;;4860804;29;20391;-70
2021/08/11 09:28:41;;;;;;;6.03;2.50;;;973.20;665.60;;;;;;4861058;29;20108;-70
2021/08/11 09:31:30;;;;;;;3.25;2.50;;;973.30;665.60;;;;;;4861004;29;20030;-70
2021/08/11 09:34:05;;;;;;;3.45;2.33;;;973.20;691.20;;;;;;4859773;29;20480;-71
2021/08/11 09:36:51;;;;;;;4.97;2.45;;;973.40;665.60;;;;;;4860879;29;20036;-70
2021/08/11 09:39:23;;;;;;;4.63;2.85;;;973.40;665.60;;;;;;4861025;29;20133;-71
2021/08/11 09:42:13;;;;;;;7.13;2.63;;;973.50;665.60;;;;;;4861103;29;20377;-72
2021/08/11 09:44:57;;;;;;;4.72;2.38;;;973.50;665.60;;;;;;4860881;29;20053;-71
2021/08/11 09:47:29;;;;;;;4.85;2.20;;;973.60;665.60;;;;;;4860820;29;20128;-70
2021/08/11 09:50:10;;;;;;;4.43;2.58;;;973.60;665.60;;;;;;4860024;29;20147;-70
2021/08/11 09:52:51;;;;;;;6.28;2.83;;;998.40;665.60;;;;;;4851215;29;20022;-71
2021/08/11 09:55:20;;;;;;;3.15;2.38;;;998.40;665.60;;;;;;4851284;29;20105;-70
2021/08/11 09:57:48;;;;;;;3.40;2.60;;;998.40;640.00;;;;;;4850761;29;20030;-70
2021/08/11 10:00:15;;;;;;;4.00;2.47;;;998.40;640.00;;;;;;4849030;29;20034;-70
2021/08/11 10:02:45;;;;;;;3.72;2.17;;;998.40;640.00;;;;;;4853645;29;20021;-70
2021/08/11 10:05:37;;;;;;;4.00;2.33;;;998.40;665.60;;;;;;4854307;29;20473;-70
2021/08/11 10:08:05;;;;;;;4.00;2.58;;;998.50;640.00;;;;;;4853195;29;20026;-70
2021/08/11 10:10:48;;;;;;;3.25;2.30;;;998.50;640.00;;;;;;4852466;29;20085;-70
2021/08/11 10:13:22;;;;;;;4.93;2.70;;;998.60;614.40;;;;;;4854049;29;20022;-70
2021/08/11 10:15:54;;;;;;;2.70;2.22;;;998.60;614.40;;;;;;4849740;29;20430;-70
2021/08/11 10:18:27;;;;;;;11.40;2.92;;;998.60;640.00;;;;;;4845473;29;20381;-71
2021/08/11 10:21:02;;;;;;;16.88;5.13;;;998.70;614.40;;;;;;4845554;29;20484;-71
2021/08/11 10:23:34;;;;;;;13.95;3.38;;;998.80;614.40;;;;;;4845645;29;20029;-71
2021/08/11 10:26:06;;;;;;;6.10;2.70;;;998.80;614.40;;;;;;4845312;29;20066;-71
2021/08/11 10:28:39;;;;;;;5.15;2.67;;;998.90;614.40;;;;;;4845508;29;20032;-71
2021/08/11 10:31:12;;;;;;;6.30;2.70;;;998.90;614.40;;;;;;4845322;29;20179;-71
2021/08/11 10:33:43;;;;;;;;;;;998.90;614.40;;;;;;4845530;29;20030;-71
2021/08/11 10:36:16;;;;;;;3.40;2.50;;;999.00;588.80;;;;;;4845091;29;19931;-71
2021/08/11 10:38:49;;;;;;;2.50;1.98;;;998.90;614.40;;;;;;4844938;29;20414;-71
2021/08/11 10:41:26;;;;;;;2.22;2.03;;;999.00;588.80;;;;;;4845357;29;20087;-71
2021/08/11 10:43:59;;;;;;;5.82;2.47;;;999.00;588.80;;;;;;4845130;29;20041;-71
2021/08/11 10:47:00;;;;;;;4.18;2.28;;;999.20;588.80;;;;;;4844785;29;20137;-71
2021/08/11 10:49:49;;;;;;;5.07;2.75;;;999.30;588.80;;;;;;4845266;29;20041;-71
2021/08/11 10:52:21;;;;;;;8.73;2.53;;;999.30;588.80;;;;;;4844946;29;20116;-71
2021/08/11 10:55:01;;;;;;;9.65;2.85;;;999.30;563.20;;;;;;4845695;29;20110;-71
2021/08/11 10:57:41;;;;;;;4.50;2.47;;;1024.00;563.20;;;;;;4844821;29;20026;-71
2021/08/11 11:00:28;;;;;;;4.45;3.00;;;999.30;563.20;;;;;;4844567;29;20131;-71
2021/08/11 11:03:00;;;;;;;3.13;2.42;;;1024.00;563.20;;;;;;4844754;29;20048;-71
2021/08/11 11:05:33;;;;;;;6.72;2.78;;;1024.10;563.20;;;;;;4844746;29;20048;-71
2021/08/11 11:08:14;;;;;;;3.42;2.60;;;1024.10;563.20;;;;;;4844708;29;20026;-71
2021/08/11 11:10:47;;;;;;;4.10;2.40;;;1024.10;537.60;;;;;;4844593;29;20022;-71
2021/08/11 11:13:34;;;;;;;;;;;1024.00;512.00;;;;;;4844711;29;20071;-71
2021/08/11 11:16:08;;;;;;;6.28;2.63;;;1024.00;537.60;;;;;;4844589;29;19908;-70
2021/08/11 11:18:59;;;;;;;4.10;2.92;;;1024.00;512.00;;;;;;4844461;29;20473;-71
2021/08/11 11:21:31;;;;;;;4.03;2.88;;;1024.10;486.40;;;;;;4844312;29;20038;-71
2021/08/11 11:24:03;;;;;;;4.20;2.53;;;1024.10;486.40;;;;;;4844215;29;20090;-71
2021/08/11 11:26:35;;;;;;;5.13;2.65;;;1024.10;486.40;;;;;;4844422;29;20037;-71
2021/08/11 11:29:09;;;;;;;4.45;2.55;;;1024.10;512.00;;;;;;4844472;29;20026;-71
2021/08/11 11:31:55;;;;;;;5.38;2.70;;;1024.10;512.00;;;;;;4844302;29;20034;-71
2021/08/11 11:34:40;;;;;;;3.53;2.78;;;1024.20;512.00;;;;;;4842703;29;20523;-71
2021/08/11 11:37:14;;;;;;;3.13;2.83;;;1024.20;512.00;;;;;;4843879;29;20101;-71
2021/08/11 11:39:48;;;;;;;5.10;2.97;;;1024.20;512.00;;;;;;4842723;29;20053;-71
2021/08/11 11:42:27;;;;;;;5.35;2.63;;;1024.30;537.60;;;;;;4844133;29;20090;-71
2021/08/11 11:45:08;;;;;;;6.20;2.58;;;1024.20;512.00;;;;;;4844117;29;20026;-71
2021/08/11 11:47:44;;;;;;;6.38;2.85;;;1024.20;537.60;;;;;;4843839;29;20508;-71
2021/08/11 11:50:25;;;;;;;3.60;2.85;;;1024.20;512.00;;;;;;4843858;29;20038;-71
2021/08/11 11:52:59;;;;;;;5.55;2.67;;;1024.40;512.00;;;;;;4843885;29;20050;-71
2021/08/11 11:55:33;;;;;;;5.90;2.85;;;1024.40;512.00;;;;;;4843502;29;20033;-71
2021/08/11 11:58:18;;;;;;;5.82;2.70;;;1024.40;512.00;;;;;;4843640;29;20041;-71
2021/08/11 12:01:04;;;;;;;3.88;2.75;;;1024.40;512.00;;;;;;4843681;29;20073;-71
2021/08/11 12:03:55;;;;;;;7.72;3.00;;;1024.40;537.60;;;;;;4841890;29;20066;-71
2021/08/11 12:06:45;;;;;;;5.57;2.75;;;1024.30;537.60;;;;;;4843600;29;20021;-71
2021/08/11 12:09:14;;;;;;;4.60;2.53;;;1024.40;537.60;;;;;;4843526;29;20388;-71
2021/08/11 12:11:46;;;;;;;4.80;2.50;;;1024.40;537.60;;;;;;4843576;29;20071;-71
2021/08/11 12:14:25;;;;;;;4.78;2.70;;;1024.40;512.00;;;;;;4843531;29;20030;-71
2021/08/11 12:16:56;;;;;;;4.65;2.97;;;1024.40;512.00;;;;;;4843386;29;20109;-71
2021/08/11 12:19:31;;;;;;;4.78;2.80;;;1024.20;537.60;;;;;;4843510;29;20052;-71
2021/08/11 12:22:03;;;;;;;6.30;2.55;;;1024.20;537.60;;;;;;4843314;29;20034;-71
2021/08/11 12:24:47;;;;;;;2.78;2.53;;;1024.40;537.60;;;;;;4842901;29;20109;-71
2021/08/11 12:27:18;;;;;;;3.83;2.80;;;1024.40;537.60;;;;;;4843895;29;20365;-71
2021/08/11 12:30:09;;;;;;;5.68;2.90;;;1024.20;537.60;;;;;;4843208;29;20053;-71
2021/08/11 12:32:41;;;;;;;3.38;2.75;;;1024.20;537.60;;;;;;4843144;29;20044;-71
2021/08/11 12:35:14;;;;;;;6.38;2.50;;;1024.10;537.60;;;;;;4843255;29;20481;-71
2021/08/11 12:37:51;;;;;;;8.38;3.35;;;1024.10;537.60;;;;;;4843112;29;20109;-71
2021/08/11 12:40:38;;;;;;;11.15;2.65;;;1024.10;563.20;;;;;;4843147;29;20053;-71
2021/08/11 12:43:10;;;;;;;4.97;2.67;;;1024.10;537.60;;;;;;4843063;29;20026;-71
2021/08/11 12:45:50;;;;;;;3.75;2.40;;;1024.10;537.60;;;;;;4842739;29;20046;-71
2021/08/11 12:48:30;;;;;;;5.60;2.70;;;1024.10;537.60;;;;;;4843198;29;20040;-71